Time;durP1;ratioP1;P1;durP2;ratioP2;P2;SDS_P1;SDS_P2;PMS_P1;PMS_P2;Temp;Humidity;BMP_temperature;BMP_pressure;BME280_temperature;BME280_humidity;BME280_pressure;Samples;Min_cycle;Max_cycle;Signal;HPM_P1;HPM_P2
2022/06/19 00:00:07;;;;;;;5.60;1.80;;;;;;;19.54;73.79;100371.08;107838;1279;61944;-85
2022/06/19 00:02:35;;;;;;;7.40;4.10;;;;;;;19.50;74.16;100377.89;107509;1279;61648;-86
2022/06/19 00:05:02;;;;;;;2.80;1.60;;;;;;;19.45;74.13;100374.59;107542;1280;74310;-84
2022/06/19 00:07:29;;;;;;;5.90;2.50;;;;;;;19.43;74.21;100372.38;107525;1279;68864;-85
2022/06/19 00:09:56;;;;;;;5.10;2.50;;;;;;;19.42;74.23;100367.48;107805;1278;74156;-84
2022/06/19 00:12:23;;;;;;;4.30;2.00;;;;;;;19.40;74.52;100364.32;107737;1279;62305;-85
2022/06/19 00:14:50;;;;;;;2.70;1.30;;;;;;;19.40;74.39;100361.73;107518;1279;59756;-84
2022/06/19 00:17:16;;;;;;;4.90;1.60;;;;;;;19.39;74.58;100349.67;107500;1279;74839;-84
2022/06/19 00:19:44;;;;;;;6.10;1.80;;;;;;;19.37;74.57;100344.73;107537;1279;71611;-83
2022/06/19 00:22:11;;;;;;;4.80;1.60;;;;;;;19.34;74.67;100333.99;107549;1279;72379;-83
2022/06/19 00:24:38;;;;;;;3.40;2.00;;;;;;;19.31;74.99;100325.27;108037;1279;62361;-83
2022/06/19 00:27:05;;;;;;;3.00;1.50;;;;;;;19.27;74.85;100316.65;107710;1279;60434;-83
2022/06/19 00:29:32;;;;;;;4.50;1.40;;;;;;;19.23;75.15;100305.88;108083;1279;74928;-83
2022/06/19 00:31:59;;;;;;;4.00;1.80;;;;;;;19.19;75.18;100301.83;107948;1280;71634;-83
2022/06/19 00:34:25;;;;;;;3.30;1.40;;;;;;;19.16;75.30;100296.80;108097;1279;72926;-85
2022/06/19 00:36:53;;;;;;;3.20;1.30;;;;;;;19.12;75.41;100287.39;107791;1279;61859;-85
2022/06/19 00:39:20;;;;;;;3.80;1.50;;;;;;;19.07;75.81;100283.27;107762;1281;60538;-84
2022/06/19 00:41:47;;;;;;;4.00;1.80;;;;;;;19.02;75.73;100279.70;107881;1279;76324;-84
2022/06/19 00:44:16;;;;;;;3.70;1.80;;;;;;;18.97;75.95;100272.45;107996;1279;72060;-83
2022/06/19 00:46:48;;;;;;;5.50;2.20;;;;;;;18.92;76.22;100266.15;107787;1278;74050;-84
2022/06/19 00:49:27;;;;;;;3.00;1.40;;;;;;;18.85;76.27;100270.39;107664;1279;61108;-84
2022/06/19 00:52:02;;;;;;;2.60;1.30;;;;;;;18.79;76.80;100261.77;107623;1279;60339;-83
2022/06/19 00:54:34;;;;;;;2.80;1.20;;;;;;;18.72;77.13;100257.74;107552;1279;75016;-83
2022/06/19 00:57:01;;;;;;;3.90;1.40;;;;;;;18.66;77.37;100260.02;107698;1279;71599;-85
2022/06/19 00:59:29;;;;;;;5.80;2.50;;;;;;;18.62;77.65;100255.24;107428;1279;73066;-83
2022/06/19 01:01:56;;;;;;;3.10;1.60;;;;;;;18.58;77.69;100258.66;107634;1278;62335;-83
2022/06/19 01:04:35;;;;;;;3.60;1.50;;;;;;;18.55;78.13;100254.79;107364;1281;60677;-83
2022/06/19 01:07:01;;;;;;;3.40;1.50;;;;;;;18.53;78.29;100253.14;107767;1279;74030;-83
2022/06/19 01:09:28;;;;;;;3.80;2.00;;;;;;;18.51;78.48;100250.05;107640;1279;72705;-83
2022/06/19 01:11:55;;;;;;;3.00;2.00;;;;;;;18.49;78.60;100247.48;107495;1281;75102;-83
2022/06/19 01:14:24;;;;;;;4.20;2.20;;;;;;;18.47;78.86;100241.00;107723;1279;63494;-83
2022/06/19 01:16:51;;;;;;;3.60;1.40;;;;;;;18.46;78.98;100235.11;107387;1281;60364;-83
2022/06/19 01:19:31;;;;;;;5.30;1.70;;;;;;;18.45;78.96;100233.86;107384;1281;75648;-83
2022/06/19 01:22:26;;;;;;;3.00;1.50;;;;;;;18.41;78.94;100233.77;107730;1277;72685;-83
2022/06/19 01:25:04;;;;;;;3.00;1.80;;;;;;;18.35;79.32;100236.35;107790;1279;73942;-83
2022/06/19 01:30:22;;;;;;;5.10;1.70;;;;;;;18.25;79.64;100228.51;107467;1277;61810;-82
2022/06/19 01:32:50;;;;;;;3.10;1.80;;;;;;;18.19;79.74;100224.53;107712;1281;76229;-83
2022/06/19 01:35:20;;;;;;;2.60;1.80;;;;;;;18.16;79.67;100223.92;107370;1280;72616;-83
2022/06/19 01:37:49;;;;;;;2.10;1.40;;;;;;;18.11;80.15;100215.12;107745;1279;74225;-83
2022/06/19 01:40:21;;;;;;;2.50;1.40;;;;;;;18.05;80.67;100211.60;107484;1279;62040;-83
2022/06/19 01:42:48;;;;;;;5.30;1.90;;;;;;;17.99;80.70;100201.06;107668;1279;61986;-83
2022/06/19 01:45:16;;;;;;;4.70;1.80;;;;;;;17.94;80.81;100197.52;107434;1279;75026;-83
2022/06/19 01:47:43;;;;;;;3.40;1.80;;;;;;;17.89;81.07;100194.42;107374;1279;72432;-84
2022/06/19 01:50:18;;;;;;;5.10;1.60;;;;;;;17.84;81.31;100187.38;107414;1279;73609;-84
2022/06/19 01:52:46;;;;;;;;;;;;;;;17.80;81.51;100186.31;107528;1279;62121;-84
2022/06/19 01:55:16;;;;;;;3.30;1.70;;;;;;;17.75;81.80;100182.02;107443;1279;60132;-83
2022/06/19 01:57:49;;;;;;;3.90;1.50;;;;;;;17.70;82.05;100176.34;107505;1280;75831;-83
2022/06/19 02:00:21;;;;;;;4.10;2.60;;;;;;;17.67;82.16;100169.13;107630;1279;72427;-84
2022/06/19 02:02:58;;;;;;;6.10;2.00;;;;;;;17.64;82.35;100164.99;107442;1279;73401;-84
2022/06/19 02:05:25;;;;;;;3.50;1.60;;;;;;;17.62;82.36;100161.71;107588;1279;62318;-84
2022/06/19 02:07:52;;;;;;;2.10;1.50;;;;;;;17.59;82.51;100155.16;107784;1279;60823;-84
2022/06/19 02:10:20;;;;;;;3.70;1.60;;;;;;;17.56;82.75;100154.27;107820;1279;74704;-84
2022/06/19 02:12:47;;;;;;;2.60;1.50;;;;;;;17.52;82.63;100152.98;107689;1279;71532;-83
2022/06/19 02:15:14;;;;;;;3.00;1.40;;;;;;;17.49;82.69;100149.20;107534;1279;71730;-84
2022/06/19 02:17:52;;;;;;;1.80;1.10;;;;;;;17.47;82.82;100146.05;107736;1279;62757;-83
2022/06/19 02:20:19;;;;;;;3.40;1.50;;;;;;;17.43;83.05;100142.70;107478;1281;61435;-83
2022/06/19 02:22:47;;;;;;;3.50;1.30;;;;;;;17.41;83.12;100142.66;107649;1279;75002;-84
2022/06/19 02:25:14;;;;;;;3.90;1.20;;;;;;;17.39;83.06;100138.89;107693;1279;70960;-83
2022/06/19 02:27:40;;;;;;;6.10;1.30;;;;;;;17.38;83.25;100126.80;107169;1279;73086;-83
2022/06/19 02:30:11;;;;;;;3.10;1.70;;;;;;;17.35;83.53;100122.61;107504;1279;61268;-83
2022/06/19 02:32:45;;;;;;;3.50;1.50;;;;;;;17.32;83.64;100123.73;107161;1281;61659;-83
2022/06/19 02:35:22;;;;;;;2.00;1.30;;;;;;;17.28;83.76;100118.23;107834;1279;75091;-83
2022/06/19 02:37:52;;;;;;;3.70;1.90;;;;;;;17.25;83.80;100114.61;107762;1279;72416;-83
2022/06/19 02:40:48;;;;;;;3.80;1.40;;;;;;;17.22;83.88;100117.59;107747;1279;71897;-83
2022/06/19 02:43:19;;;;;;;2.30;1.20;;;;;;;17.19;84.02;100120.48;107432;1279;62345;-82
2022/06/19 02:45:46;;;;;;;2.70;1.40;;;;;;;17.17;84.09;100116.61;107440;1280;60621;-83
2022/06/19 02:48:27;;;;;;;2.30;1.40;;;;;;;17.16;84.12;100114.61;107801;1279;74891;-83
2022/06/19 02:50:56;;;;;;;2.00;1.20;;;;;;;17.14;84.14;100115.80;107687;1279;72558;-82
2022/06/19 02:53:23;;;;;;;2.40;1.50;;;;;;;17.12;84.28;100121.38;107694;1280;74041;-83
2022/06/19 02:55:51;;;;;;;4.90;1.20;;;;;;;17.09;84.26;100124.27;107441;1279;61201;-83
2022/06/19 02:58:19;;;;;;;2.30;1.30;;;;;;;17.07;84.25;100118.55;107785;1279;60539;-82
2022/06/19 03:00:48;;;;;;;2.20;1.20;;;;;;;17.04;84.52;100113.44;107848;1279;75422;-83
2022/06/19 03:03:35;;;;;;;3.20;1.20;;;;;;;17.03;84.21;100101.34;107207;1281;72324;-83
2022/06/19 03:06:06;;;;;;;1.90;1.10;;;;;;;17.02;84.41;100091.83;107509;1279;73920;-82
2022/06/19 03:08:33;;;;;;;1.70;1.30;;;;;;;17.01;84.57;100080.02;107800;1279;62178;-83
2022/06/19 03:11:07;;;;;;;1.80;1.10;;;;;;;17.00;84.28;100064.79;107889;1279;60895;-84
2022/06/19 03:13:34;;;;;;;1.60;1.20;;;;;;;17.00;84.11;100059.38;107644;1279;74083;-83
2022/06/19 03:16:03;;;;;;;2.80;1.10;;;;;;;17.00;84.27;100061.89;107757;1279;70933;-83
2022/06/19 03:18:33;;;;;;;1.60;0.90;;;;;;;16.99;84.20;100064.13;107607;1279;73074;-83
2022/06/19 03:21:00;;;;;;;1.70;0.90;;;;;;;16.98;84.38;100071.87;107648;1279;61173;-83
2022/06/19 03:23:27;;;;;;;1.50;1.10;;;;;;;16.95;84.54;100072.86;107370;1279;60653;-83
2022/06/19 03:25:54;;;;;;;2.30;1.20;;;;;;;16.94;84.35;100062.70;107666;1279;74818;-83
2022/06/19 03:28:21;;;;;;;1.90;1.20;;;;;;;16.95;84.13;100053.57;107733;1279;71592;-83
2022/06/19 03:30:54;;;;;;;1.50;0.80;;;;;;;16.96;84.04;100044.36;107586;1279;74248;-83
2022/06/19 03:33:21;;;;;;;2.30;1.00;;;;;;;16.95;83.99;100044.79;107789;1278;62917;-84
2022/06/19 03:35:48;;;;;;;2.80;1.10;;;;;;;16.95;83.86;100046.39;107614;1278;61173;-83
2022/06/19 03:38:15;;;;;;;3.10;1.10;;;;;;;16.95;83.96;100046.17;107844;1279;76332;-83
2022/06/19 03:40:42;;;;;;;1.70;1.00;;;;;;;16.95;83.95;100038.68;107832;1279;71493;-83
2022/06/19 03:43:10;;;;;;;7.10;1.30;;;;;;;16.94;83.79;100031.91;107587;1279;73100;-84
2022/06/19 03:45:37;;;;;;;1.90;0.90;;;;;;;16.95;83.84;100030.95;107876;1279;61622;-83
2022/06/19 03:48:05;;;;;;;3.60;1.20;;;;;;;16.95;83.71;100020.23;107373;1279;60638;-83
2022/06/19 03:50:32;;;;;;;1.60;0.90;;;;;;;16.95;83.71;100014.58;107622;1279;74924;-84
2022/06/19 03:52:58;;;;;;;2.30;1.10;;;;;;;16.96;83.74;100005.00;107818;1279;70029;-84
2022/06/19 03:55:25;;;;;;;1.50;1.00;;;;;;;16.97;83.55;99997.19;107479;1279;71569;-84
2022/06/19 03:57:52;;;;;;;1.80;1.20;;;;;;;16.98;83.56;99994.38;107703;1281;61937;-84
2022/06/19 04:00:19;;;;;;;1.20;0.90;;;;;;;16.98;83.59;99989.66;107437;1279;60562;-84
2022/06/19 04:02:46;;;;;;;2.40;1.10;;;;;;;16.98;83.71;99981.96;108247;1279;75395;-83
2022/06/19 04:05:14;;;;;;;2.40;1.20;;;;;;;16.99;83.50;99981.70;108099;1279;71573;-84
2022/06/19 04:07:47;;;;;;;2.20;1.10;;;;;;;17.02;83.51;99970.30;107860;1279;72791;-84
2022/06/19 04:10:16;;;;;;;5.70;1.20;;;;;;;17.06;83.39;99961.44;107435;1279;62289;-83
2022/06/19 04:12:49;;;;;;;2.40;0.80;;;;;;;17.10;83.28;99957.70;107181;1279;60486;-84
2022/06/19 04:15:17;;;;;;;1.50;0.70;;;;;;;17.13;83.20;99968.98;107458;1279;75665;-83
2022/06/19 04:17:44;;;;;;;1.60;1.00;;;;;;;17.18;83.14;99975.83;107725;1279;71645;-83
2022/06/19 04:20:11;;;;;;;3.90;1.20;;;;;;;17.23;83.03;99981.09;107826;1279;74151;-83
2022/06/19 04:22:38;;;;;;;1.90;1.20;;;;;;;17.30;82.89;99975.45;107829;1279;62928;-84
2022/06/19 04:25:07;;;;;;;3.90;1.10;;;;;;;17.38;82.54;99970.71;107134;1281;61626;-84
2022/06/19 04:27:37;;;;;;;2.10;1.00;;;;;;;17.46;82.33;99969.06;107688;1279;75970;-83
2022/06/19 04:30:04;;;;;;;2.00;1.00;;;;;;;17.54;82.03;99963.73;107787;1278;72168;-84
2022/06/19 04:32:31;;;;;;;2.30;1.10;;;;;;;17.60;81.85;99965.04;107639;1279;73089;-83
2022/06/19 04:34:57;;;;;;;1.60;1.00;;;;;;;17.65;81.66;99963.56;107509;1279;59697;-84
2022/06/19 04:37:24;;;;;;;2.50;1.40;;;;;;;17.71;81.52;99969.90;107871;1279;60485;-84
2022/06/19 04:39:51;;;;;;;1.50;1.00;;;;;;;17.76;81.27;99972.10;107738;1279;76164;-84
2022/06/19 04:42:18;;;;;;;2.30;1.00;;;;;;;17.81;80.96;99980.34;107404;1279;72525;-83
2022/06/19 04:44:45;;;;;;;2.20;1.10;;;;;;;17.85;80.69;100000.36;107541;1279;72936;-83
2022/06/19 04:47:12;;;;;;;3.20;1.10;;;;;;;17.91;80.65;100024.52;107456;1280;61978;-83
2022/06/19 04:49:39;;;;;;;3.30;1.00;;;;;;;17.97;80.57;100041.83;107339;1279;61586;-83
2022/06/19 04:52:06;;;;;;;2.30;1.20;;;;;;;17.97;80.49;100032.71;107885;1279;59704;-84
2022/06/19 04:54:32;;;;;;;3.10;0.80;;;;;;;18.00;80.41;100000.02;107764;1279;71594;-84
2022/06/19 04:56:59;;;;;;;1.40;1.00;;;;;;;18.03;80.02;99980.77;107765;1279;73255;-83
2022/06/19 04:59:27;;;;;;;1.90;1.00;;;;;;;18.06;79.86;99979.27;107616;1280;61690;-83
2022/06/19 05:01:53;;;;;;;3.20;1.10;;;;;;;18.09;79.51;99994.02;107598;1279;60398;-83
2022/06/19 05:04:20;;;;;;;1.30;0.70;;;;;;;18.13;79.51;100012.99;107371;1281;73954;-84
2022/06/19 05:06:48;;;;;;;1.70;1.00;;;;;;;18.19;79.50;100015.83;107774;1279;70541;-83
2022/06/19 05:09:14;;;;;;;3.80;0.90;;;;;;;18.25;79.09;100003.69;107663;1281;72957;-84
2022/06/19 05:11:41;;;;;;;1.80;0.90;;;;;;;18.32;78.96;99999.73;107647;1277;61705;-84
2022/06/19 05:14:08;;;;;;;1.70;0.90;;;;;;;18.39;78.80;100014.52;107884;1279;60301;-83
2022/06/19 05:16:35;;;;;;;2.00;0.90;;;;;;;18.46;78.28;100036.86;107460;1279;76019;-84
2022/06/19 05:19:04;;;;;;;3.60;1.00;;;;;;;18.49;77.72;100044.53;107710;1279;71399;-83
2022/06/19 05:21:31;;;;;;;1.60;0.90;;;;;;;18.52;77.58;100029.31;107668;1277;72983;-83
2022/06/19 05:23:58;;;;;;;3.60;1.00;;;;;;;18.56;77.33;100022.14;107405;1279;63509;-83
2022/06/19 05:26:34;;;;;;;2.90;0.90;;;;;;;18.57;76.79;100024.35;107658;1279;61057;-83
2022/06/19 05:29:03;;;;;;;1.80;0.80;;;;;;;18.60;76.63;100023.38;107547;1279;76898;-83
2022/06/19 05:31:30;;;;;;;2.90;1.60;;;;;;;18.62;76.04;100032.77;107813;1277;72341;-83
2022/06/19 05:33:57;;;;;;;2.70;1.00;;;;;;;18.63;75.59;100021.88;107657;1281;73889;-83
2022/06/19 05:36:29;;;;;;;2.80;1.10;;;;;;;18.67;75.43;100009.41;107473;1281;62470;-83
2022/06/19 05:38:57;;;;;;;2.40;0.90;;;;;;;18.70;74.95;100028.60;107818;1279;60587;-82
2022/06/19 05:41:23;;;;;;;2.40;0.80;;;;;;;18.71;74.30;100017.42;107650;1279;75105;-83
2022/06/19 05:43:50;;;;;;;1.70;1.00;;;;;;;18.73;74.16;99989.04;107631;1279;71353;-83
2022/06/19 05:46:18;;;;;;;2.20;0.80;;;;;;;18.79;73.97;100010.88;107799;1279;75152;-82
2022/06/19 05:48:46;;;;;;;2.30;0.90;;;;;;;18.84;73.47;100002.29;107759;1279;62268;-85
2022/06/19 05:51:19;;;;;;;1.90;0.90;;;;;;;18.91;73.42;99977.60;107671;1281;62286;-83
2022/06/19 05:53:57;;;;;;;3.10;1.10;;;;;;;19.00;72.88;100010.80;107722;1279;74947;-83
2022/06/19 05:56:25;;;;;;;3.20;0.90;;;;;;;19.07;72.58;100004.97;107701;1281;72412;-83
2022/06/19 05:58:53;;;;;;;3.10;1.00;;;;;;;19.15;72.35;100013.02;107368;1279;74239;-83
2022/06/19 06:01:21;;;;;;;3.90;1.30;;;;;;;19.22;71.85;100030.63;107665;1279;62255;-82
2022/06/19 06:03:49;;;;;;;3.90;2.90;;;;;;;19.28;71.47;100015.20;107841;1279;59479;-83
2022/06/19 06:06:20;;;;;;;7.70;4.30;;;;;;;19.33;71.13;100023.33;107610;1279;74038;-83
2022/06/19 06:08:48;;;;;;;1.60;1.00;;;;;;;19.38;70.51;100024.27;107545;1281;72616;-84
2022/06/19 06:11:16;;;;;;;4.60;2.10;;;;;;;19.41;70.22;100033.59;107535;1281;73994;-83
2022/06/19 06:13:43;;;;;;;5.60;1.10;;;;;;;19.45;69.85;100025.64;107530;1279;62067;-83
2022/06/19 06:16:12;;;;;;;5.30;1.00;;;;;;;19.45;69.11;100029.88;107663;1279;61770;-83
2022/06/19 06:18:39;;;;;;;5.40;1.10;;;;;;;19.44;68.62;100040.78;107499;1279;75594;-84
2022/06/19 06:21:11;;;;;;;5.30;1.20;;;;;;;19.39;67.99;100041.42;107605;1281;71535;-83
2022/06/19 06:23:38;;;;;;;5.90;2.10;;;;;;;19.32;67.39;100061.95;107581;1279;72942;-84
2022/06/19 06:26:14;;;;;;;5.90;1.20;;;;;;;19.24;66.70;100058.92;107162;1279;62536;-83
2022/06/19 06:28:43;;;;;;;6.20;1.30;;;;;;;19.20;67.20;100063.17;107736;1279;61994;-84
2022/06/19 06:31:11;;;;;;;4.00;1.90;;;;;;;19.25;67.08;100057.55;107671;1279;74998;-84
2022/06/19 06:33:38;;;;;;;3.80;1.20;;;;;;;19.30;66.49;100059.38;107859;1279;72615;-84
2022/06/19 06:36:08;;;;;;;6.00;1.20;;;;;;;19.32;66.22;100051.13;107572;1278;73482;-84
2022/06/19 06:38:35;;;;;;;4.10;1.90;;;;;;;19.43;66.72;100057.36;107280;1279;60682;-83
2022/06/19 06:41:07;;;;;;;3.80;0.90;;;;;;;19.55;65.05;100063.36;107662;1279;62570;-84
2022/06/19 06:43:38;;;;;;;10.50;1.30;;;;;;;19.63;64.53;100070.41;108222;1279;74991;-84
2022/06/19 06:46:12;;;;;;;4.20;0.90;;;;;;;19.72;64.26;100046.55;108017;1280;71402;-84
2022/06/19 06:48:40;;;;;;;4.50;1.20;;;;;;;19.82;62.91;100040.95;108241;1279;74226;-84
2022/06/19 06:51:09;;;;;;;4.10;1.00;;;;;;;19.84;62.04;100044.21;108111;1279;60520;-83
2022/06/19 06:53:35;;;;;;;4.20;1.50;;;;;;;19.83;61.57;100044.80;108132;1279;60414;-84
2022/06/19 06:56:03;;;;;;;4.70;1.30;;;;;;;19.83;61.15;100049.75;107987;1281;75122;-84
2022/06/19 06:58:32;;;;;;;4.60;1.20;;;;;;;19.86;61.19;100028.29;108271;1279;70370;-84
2022/06/19 07:01:07;;;;;;;4.70;1.40;;;;;;;19.91;61.05;100019.58;107951;1279;73105;-84
2022/06/19 07:03:33;;;;;;;4.80;1.10;;;;;;;20.00;60.28;100037.10;107504;1281;61406;-83
2022/06/19 07:06:00;;;;;;;4.20;1.20;;;;;;;20.05;59.66;100038.23;107707;1279;59280;-83
2022/06/19 07:08:27;;;;;;;6.20;1.30;;;;;;;20.08;58.74;100023.67;107765;1279;73997;-84
2022/06/19 07:10:54;;;;;;;5.60;1.70;;;;;;;20.11;58.99;100013.69;107617;1279;72199;-84
2022/06/19 07:13:21;;;;;;;3.20;1.20;;;;;;;20.20;59.07;100016.41;107788;1279;73249;-84
2022/06/19 07:15:50;;;;;;;4.50;1.80;;;;;;;20.20;57.30;100020.66;107798;1279;61368;-83
2022/06/19 07:18:19;;;;;;;4.30;1.30;;;;;;;20.18;57.35;100033.52;107563;1279;60640;-85
2022/06/19 07:20:46;;;;;;;2.60;1.00;;;;;;;20.21;58.13;100030.48;107485;1279;76099;-85
2022/06/19 07:23:13;;;;;;;4.80;1.20;;;;;;;20.33;58.31;100030.59;107164;1279;73072;-85
2022/06/19 07:25:40;;;;;;;4.30;1.20;;;;;;;20.43;57.53;100035.20;107734;1279;74356;-85
2022/06/19 07:28:07;;;;;;;6.90;1.60;;;;;;;20.52;57.76;100033.12;108185;1278;60596;-85
2022/06/19 07:30:34;;;;;;;8.80;1.90;;;;;;;20.65;57.54;100044.52;107791;1279;60432;-89
2022/06/19 07:33:04;;;;;;;4.30;1.50;;;;;;;20.72;56.68;100044.85;107585;1270;178354;-82
2022/06/19 07:35:31;;;;;;;4.60;1.30;;;;;;;20.75;55.94;100033.02;107421;1280;71376;-82
2022/06/19 07:37:58;;;;;;;7.20;1.60;;;;;;;20.66;55.86;100040.97;107394;1279;73446;-82
2022/06/19 07:40:26;;;;;;;7.10;3.00;;;;;;;20.62;56.21;100041.90;107243;1279;62606;-82
2022/06/19 07:42:53;;;;;;;4.40;1.70;;;;;;;20.66;56.69;100043.88;107581;1278;59595;-82
2022/06/19 07:45:20;;;;;;;6.10;1.50;;;;;;;20.72;56.53;100045.81;107888;1278;74756;-83
2022/06/19 07:50:33;;;;;;;8.00;1.50;;;;;;;20.89;56.60;100030.99;107753;1277;72949;-83
2022/06/19 07:53:00;;;;;;;4.80;1.70;;;;;;;20.96;55.81;100026.52;107498;1279;60647;-80
2022/06/19 07:55:30;;;;;;;6.90;1.30;;;;;;;20.95;56.02;100028.88;107728;1279;60515;-85
2022/06/19 07:58:02;;;;;;;5.70;1.60;;;;;;;21.02;56.57;100032.80;107512;1279;75396;-81
2022/06/19 08:00:34;;;;;;;4.40;1.40;;;;;;;21.08;56.39;100030.69;107793;1279;71063;-80
2022/06/19 08:03:02;;;;;;;4.90;1.40;;;;;;;21.14;55.76;100035.40;107480;1279;72609;-81
2022/06/19 08:05:32;;;;;;;7.10;1.90;;;;;;;21.14;55.64;100023.49;107496;1279;59794;-80
2022/06/19 08:08:01;;;;;;;6.40;1.80;;;;;;;21.21;56.10;100002.28;107415;1279;61971;-82
2022/06/19 08:10:35;;;;;;;6.00;2.00;;;;;;;21.35;56.53;99993.88;107943;1279;75039;-82
2022/06/19 08:13:03;;;;;;;7.20;1.80;;;;;;;21.58;56.50;100013.79;107771;1279;72079;-82
2022/06/19 08:15:30;;;;;;;7.40;1.60;;;;;;;21.72;55.63;100014.77;107601;1279;72938;-82
2022/06/19 08:17:58;;;;;;;6.90;1.80;;;;;;;21.90;55.92;100005.25;107425;1281;61789;-81
2022/06/19 08:20:25;;;;;;;9.60;2.30;;;;;;;22.11;55.68;100001.39;107760;1279;61736;-80
2022/06/19 08:22:53;;;;;;;5.00;2.50;;;;;;;22.29;55.63;99991.91;107897;1279;74877;-81
2022/06/19 08:25:22;;;;;;;9.80;3.90;;;;;;;22.49;55.40;99994.19;107402;1280;71279;-81
2022/06/19 08:27:50;;;;;;;4.80;2.00;;;;;;;22.63;54.44;99984.92;107352;1281;72989;-81
2022/06/19 08:30:25;;;;;;;7.70;1.90;;;;;;;22.74;53.35;99991.30;107241;1280;61742;-81
2022/06/19 08:32:55;;;;;;;7.60;2.10;;;;;;;22.78;52.84;99996.15;107417;1279;60610;-81
2022/06/19 08:35:22;;;;;;;4.10;1.90;;;;;;;22.84;53.19;100009.73;107731;1279;76008;-80
2022/06/19 08:38:03;;;;;;;6.20;1.60;;;;;;;22.93;52.43;100026.30;107359;1280;72458;-81
2022/06/19 08:40:49;;;;;;;5.70;1.90;;;;;;;23.00;52.09;100055.14;107467;1278;74051;-84
2022/06/19 08:43:37;;;;;;;3.90;1.80;;;;;;;23.03;52.39;100068.78;107629;1281;60871;-82
2022/06/19 08:46:36;;;;;;;4.60;1.90;;;;;;;23.07;52.43;100095.41;107477;1281;61071;-82
2022/06/19 08:49:32;;;;;;;5.90;1.70;;;;;;;23.20;52.26;100075.08;107289;1279;331461;-82
2022/06/19 08:52:07;;;;;;;;;;;;;;;23.34;51.34;100073.96;107534;1279;71100;-82
2022/06/19 08:55:06;;;;;;;7.00;1.90;;;;;;;23.41;51.05;100068.65;107603;1280;73811;-83
2022/06/19 08:57:36;;;;;;;7.70;1.80;;;;;;;23.55;50.62;100065.71;107674;1278;59866;-82
2022/06/19 09:00:19;;;;;;;5.30;1.60;;;;;;;23.53;49.81;100087.16;107674;1281;60462;-83
2022/06/19 09:02:55;;;;;;;5.50;1.80;;;;;;;23.38;50.48;100084.61;107696;1281;74383;-82
2022/06/19 09:08:46;;;;;;;8.00;1.90;;;;;;;23.23;51.31;100088.50;107343;1281;73044;-82
2022/06/19 09:11:43;;;;;;;5.50;1.50;;;;;;;23.28;51.18;100097.69;107825;1280;60606;-82
2022/06/19 09:14:31;;;;;;;6.80;2.00;;;;;;;23.39;50.92;100100.33;107675;1281;60737;-82
2022/06/19 09:17:12;;;;;;;6.90;1.50;;;;;;;23.49;50.82;100105.49;107342;1281;75773;-80
2022/06/19 09:19:56;;;;;;;5.40;1.60;;;;;;;23.50;50.59;100104.34;107698;1281;72250;-81
2022/06/19 09:23:04;;;;;;;6.80;2.10;;;;;;;23.66;51.19;100117.13;107588;1280;74382;-82
2022/06/19 09:25:47;;;;;;;4.70;1.60;;;;;;;23.83;50.02;100126.67;106794;1282;60650;-81
2022/06/19 09:28:18;;;;;;;13.20;3.30;;;;;;;23.80;49.36;100130.38;107574;1281;60372;-82
2022/06/19 09:31:13;;;;;;;7.10;2.10;;;;;;;23.76;49.91;100143.38;107835;1279;76010;-82
2022/06/19 09:34:02;;;;;;;6.90;1.90;;;;;;;23.75;50.19;100141.86;107899;1279;72737;-82
2022/06/19 09:36:32;;;;;;;5.40;1.60;;;;;;;23.79;50.48;100147.56;107625;1279;73672;-82
2022/06/19 09:39:09;;;;;;;8.50;2.20;;;;;;;23.87;50.16;100153.80;107662;1279;60818;-82
2022/06/19 09:42:00;;;;;;;6.70;2.20;;;;;;;23.91;49.84;100173.84;107461;1280;61383;-83
2022/06/19 09:44:38;;;;;;;8.80;2.30;;;;;;;23.90;49.84;100185.80;107779;1279;74278;-82
2022/06/19 09:47:12;;;;;;;9.30;1.70;;;;;;;23.96;49.80;100205.58;107242;1282;71818;-81
2022/06/19 09:49:49;;;;;;;7.00;2.10;;;;;;;24.06;49.73;100209.33;107398;1280;72898;-81
2022/06/19 09:52:22;;;;;;;10.20;2.30;;;;;;;24.07;49.46;100205.27;107515;1279;59387;-81
2022/06/19 09:54:57;;;;;;;8.00;2.20;;;;;;;24.05;48.87;100221.64;107697;1279;61117;-83
2022/06/19 09:57:36;;;;;;;7.10;1.70;;;;;;;23.94;48.81;100215.77;107745;1279;75996;-82
2022/06/19 10:00:17;;;;;;;8.70;2.30;;;;;;;24.04;49.07;100217.19;107292;1281;71188;-82
2022/06/19 10:03:10;;;;;;;12.90;2.60;;;;;;;24.16;48.66;100204.91;107401;1279;75323;-81
2022/06/19 10:05:45;;;;;;;7.30;2.10;;;;;;;24.26;48.25;100198.23;107681;1279;61234;-82
2022/06/19 10:08:17;;;;;;;8.70;2.50;;;;;;;24.44;47.59;100207.60;107767;1279;60826;-82
2022/06/19 10:10:48;;;;;;;10.40;2.10;;;;;;;24.51;47.02;100220.59;107469;1279;75581;-82
2022/06/19 10:13:24;;;;;;;7.70;2.20;;;;;;;24.49;45.99;100213.11;107782;1279;71237;-82
2022/06/19 10:15:55;;;;;;;7.50;1.70;;;;;;;24.38;45.39;100199.75;107655;1280;74025;-82
2022/06/19 10:18:37;;;;;;;6.30;1.80;;;;;;;24.34;45.63;100203.41;107575;1279;61045;-81
2022/06/19 10:21:07;;;;;;;8.10;1.60;;;;;;;24.38;44.96;100215.69;107732;1279;61496;-81
2022/06/19 10:23:59;;;;;;;10.90;2.40;;;;;;;24.44;44.37;100212.70;107651;1279;74161;-81
2022/06/19 10:26:41;;;;;;;9.00;2.50;;;;;;;24.33;44.71;100204.17;107135;1282;72914;-83
2022/06/19 10:29:30;;;;;;;7.60;2.40;;;;;;;24.14;44.81;100195.00;107492;1279;74282;-83
2022/06/19 10:32:16;;;;;;;5.20;1.70;;;;;;;24.04;45.24;100210.27;107410;1280;61847;-81
2022/06/19 10:34:50;;;;;;;8.40;2.10;;;;;;;24.00;44.85;100225.55;107717;1279;60402;-82
2022/06/19 10:37:37;;;;;;;6.10;1.70;;;;;;;24.06;45.31;100218.42;107431;1279;76268;-82
2022/06/19 10:40:27;;;;;;;6.40;1.80;;;;;;;24.12;45.25;100219.23;107736;1279;72684;-81
2022/06/19 10:43:11;;;;;;;8.00;2.20;;;;;;;24.07;44.71;100233.39;107100;1281;74348;-81
2022/06/19 10:45:54;;;;;;;4.20;1.80;;;;;;;23.82;44.34;100247.72;107191;1280;60666;-82
2022/06/19 10:48:27;;;;;;;7.80;1.40;;;;;;;23.83;45.09;100245.48;107588;1279;62258;-82
2022/06/19 10:51:35;;;;;;;5.60;1.60;;;;;;;23.94;45.17;100239.83;107753;1279;76968;-82
2022/06/19 10:54:14;;;;;;;6.40;1.60;;;;;;;24.25;44.62;100249.95;107571;1279;72587;-83
2022/06/19 10:57:12;;;;;;;7.90;2.00;;;;;;;24.26;43.96;100243.73;107473;1280;72956;-82
2022/06/19 10:59:39;;;;;;;5.20;1.60;;;;;;;24.21;43.86;100237.95;107730;1279;60710;-82
2022/06/19 11:05:30;;;;;;;7.90;2.50;;;;;;;24.53;44.15;100237.35;107708;1280;74990;-82
2022/06/19 11:07:56;;;;;;;6.20;1.70;;;;;;;24.66;43.52;100234.61;107862;1280;71411;-84
2022/06/19 11:10:46;;;;;;;8.90;2.10;;;;;;;24.73;43.26;100230.34;107550;1280;73129;-82
2022/06/19 11:13:14;;;;;;;7.20;2.00;;;;;;;24.84;43.53;100226.41;107419;1281;61231;-82
2022/06/19 11:15:45;;;;;;;9.50;2.00;;;;;;;24.92;43.03;100216.65;107718;1280;60615;-82
2022/06/19 11:18:16;;;;;;;7.70;2.00;;;;;;;25.16;43.24;100218.83;107423;1281;75004;-83
2022/06/19 11:21:12;;;;;;;6.40;2.20;;;;;;;25.37;42.72;100213.39;107480;1281;72320;-83
2022/06/19 11:24:04;;;;;;;7.60;2.40;;;;;;;25.76;41.74;100216.00;107028;1280;74345;-83
2022/06/19 11:26:39;;;;;;;5.10;2.10;;;;;;;26.14;41.34;100217.55;107723;1281;60558;-83
2022/06/19 11:29:09;;;;;;;10.00;2.30;;;;;;;26.18;41.17;100217.98;107609;1281;60514;-83
2022/06/19 11:31:40;;;;;;;5.80;1.70;;;;;;;26.10;41.12;100213.41;107604;1281;74961;-83
2022/06/19 11:37:10;;;;;;;8.10;2.00;;;;;;;25.87;41.72;100165.60;107452;1280;73101;-83
2022/06/19 11:39:53;;;;;;;5.60;1.80;;;;;;;25.96;41.62;100164.55;107847;1280;60832;-82
2022/06/19 11:42:25;;;;;;;7.80;2.20;;;;;;;25.93;41.66;100182.61;107597;1280;60753;-83
2022/06/19 11:45:11;;;;;;;7.80;2.20;;;;;;;25.96;42.16;100179.33;107543;1281;75819;-83
2022/06/19 11:47:48;;;;;;;5.40;1.60;;;;;;;26.29;41.91;100161.66;107663;1281;71227;-83
2022/06/19 11:50:21;;;;;;;6.10;1.90;;;;;;;26.78;41.75;100147.16;107752;1280;74261;-83
2022/06/19 11:53:02;;;;;;;7.10;2.40;;;;;;;27.16;40.50;100144.18;107390;1280;60563;-82
2022/06/19 11:55:32;;;;;;;7.00;2.30;;;;;;;27.42;39.38;100130.05;107642;1281;60631;-81